Current Weather Conditions from Arkansas, Oklahoma, Missouri & Kansas

As well as selected U.S. cities associated with XNA Flights


KVBT - Bentonville Arkansas, Airport
Updated: Thu, Oct-Thu-2019 6:56am
Clear
Clear
 Wind from ESE
Wind: ESE 3 mph , 6 km/h
Temperature: 41°F , 5°C
Dew Point: 39°F , 4°C
Humidity: 93%
Barometer: 30.11 inHg , 1019.6 hPa
Clouds: Clear
Visibility: 10 miles , 16 km
2019/10/17 11:56 KVBT 171156Z AUTO 11003KT 10SM CLR 05/04 A3011 RMK AO2 SLP200 7//// T00500044 10061 20044 58007
KROG - Rogers Arkansas, Airport
Updated: Thu, Oct-Thu-2019 6:58am
Clear
Clear
 Wind from calm
Wind: Calm
Temperature: 43°F , 6°C
Dew Point: 41°F , 5°C
Humidity: 93%
Barometer: 30.10 inHg , 1019.3 hPa
Clouds: Clear
Visibility: 8 miles , 13 km
2019/10/17 11:58 KROG 171158Z 00000KT 8SM CLR 06/05 A3010 RMK AO2 SLP193 60000 T00560050 10072 20050 56004
KXNA - Northwest Arkansas Regional Airport
Updated: Thu, Oct-Thu-2019 6:53am
Clear
Clear
 Wind from calm
Wind: Calm
Temperature: 39°F , 4°C
Dew Point: 36°F , 2°C
Humidity: 87%
Barometer: 30.09 inHg , 1019 hPa
Clouds: Clear
Visibility: 10 miles , 16 km
2019/10/17 11:53 KXNA 171153Z 00000KT 10SM CLR 04/02 A3009 RMK AO2 SLP189 T00390022 10050 20033 58007
 
KSLG - Siloam Spring Arkansas, Airport
Updated: Thu, Oct-Thu-2019 6:56am
Clear
Clear
 Wind from E
Wind: E 5 mph , 7 km/h
Temperature: 39°F , 4°C
Wind Chill: 35°F , 2°C
Dew Point: 37°F , 3°C
Humidity: 93%
Barometer: 30.08 inHg , 1018.6 hPa
Clouds: Clear
Visibility: 10 miles , 16 km
2019/10/17 11:56 KSLG 171156Z AUTO 09004KT 10SM CLR 04/03 A3008 RMK AO2 SLP190 T00390033 10050 20028 58009
KASG - Springdale, Arkansas, Airport
Updated: Thu, Oct-Thu-2019 6:48am
Clear
Clear
 Wind from calm
Wind: Calm
Temperature: 41°F , 5°C
Dew Point: 41°F , 5°C
Humidity: 100%
Barometer: 30.10 inHg , 1019.3 hPa
Clouds: Clear
Visibility: 10 miles , 16 km
2019/10/17 11:48 KASG 171148Z 00000KT 10SM CLR 05/05 A3010
KFYV - Fayetteville Arkansas, Airport
Updated: Thu, Oct-Thu-2019 6:53am
Fog, Overcast
Fog, Overcast
 Wind from calm
Wind: Calm
Temperature: 36°F , 2°C
Dew Point: 36°F , 2°C
Humidity: 100%
Barometer: 30.10 inHg , 1019.3 hPa
Summary: Fog
Clouds: Overcast
Visibility: 1/4 mile , 0.4 km
Cloud details: Overcast 100 ft
2019/10/17 11:53 KFYV 171153Z 00000KT 1/4SM FG VV001 02/02 A3010 RMK AO2 SLP194 I1000 I6000 T00220022 10044 20022 58007
 
KHRO - Harrison, Arkansas
Updated: Thu, Oct-Thu-2019 6:53am
Clear
Clear
 Wind from ESE
Wind: ESE 3 mph , 6 km/h
Temperature: 37°F , 3°C
Dew Point: 36°F , 2°C
Humidity: 93%
Barometer: 30.10 inHg , 1019.3 hPa
Clouds: Clear
Visibility: 8 miles , 13 km
2019/10/17 11:53 KHRO 171153Z AUTO 11003KT 8SM CLR 03/02 A3010 RMK AO2 SLP194 I1000 I6000 T00280017 10050 20022 58007
KFLP - Flippin, Arkansas
Updated: Thu, Oct-Thu-2019 6:56am
Light rain, Fog, Overcast
Light rain, Fog, Overcast
 Wind from NNE
Wind: NNE 3 mph , 6 km/h
Temperature: 39°F , 4°C
Dew Point: 37°F , 3°C
Humidity: 93%
Barometer: 30.13 inHg , 1020.3 hPa
Summary: Light rain, Fog
Clouds: Overcast
Visibility: 1/4 mile , 0.4 km
Cloud details: Overcast 100 ft
2019/10/17 11:56 KFLP 171156Z AUTO 03003KT 1/4SM -RA FG OVC001 04/03 A3013 RMK AO2 RAB53 SLP202 P0000 60000 T00390033 10061 20022 58001
KBPK - Mountain Home, Arkansas
Updated: Thu, Oct-Thu-2019 6:53am
Clear
Clear
 Wind from calm
Wind: Calm
Temperature: 39°F , 4°C
Dew Point: 37°F , 3°C
Humidity: 93%
Barometer: 30.11 inHg , 1019.6 hPa
Clouds: Clear
Visibility: 10 miles , 16 km
2019/10/17 11:53 KBPK 171153Z AUTO 00000KT 10SM CLR 04/03 A3011 RMK AO2 SLP197 T00390033 10067 20033 56002
 
KCCA - Clinton, Arkansas
Updated: Thu, Oct-Thu-2019 7:35am
Clear
Clear
 Wind from calm
Wind: Calm
Temperature: 37°F , 3°C
Dew Point: 37°F , 3°C
Humidity: 100%
Barometer: 30.12 inHg , 1020 hPa
Clouds: Clear
Visibility: 9 miles , 14 km
2019/10/17 12:35 KCCA 171235Z AUTO 00000KT 9SM CLR 03/03 A3012 RMK AO2
KRUE - Russellville, Arkansas
Updated: Thu, Oct-Thu-2019 6:53am
Mist, Clear
Mist, Clear
 Wind from calm
Wind: Calm
Temperature: 39°F , 4°C
Dew Point: 37°F , 3°C
Humidity: 93%
Barometer: 30.11 inHg , 1019.6 hPa
Summary: Mist
Clouds: Clear
Visibility: 6 miles , 10 km
2019/10/17 11:53 KRUE 171153Z AUTO 00000KT 6SM BR CLR 04/03 A3011 RMK AO2 SLP192 T00390033 10067 20039 58003
KBVX - Batesville, Arkansa
Updated: Thu, Oct-Thu-2019 6:56am
Clear
Clear
 Wind from calm
Wind: Calm
Temperature: 39°F , 4°C
Dew Point: 39°F , 4°C
Humidity: 100%
Barometer: 30.13 inHg , 1020.3 hPa
Clouds: Clear
Visibility: 10 miles , 16 km
2019/10/17 11:56 KBVX 171156Z AUTO 00000KT 10SM CLR 04/04 A3013 RMK AO2 SLP204 7//// T00440039 10067 20044 58001
 
KBYH - Blytheville, Arkansas
Updated: Wed, Oct-Wed-2019 4:50pm
NOT Current
Few Clouds
Few Clouds
 Wind from WNW
Wind: WNW 10 mph , 17 km/h, Gust: 17 mph , 28 km/h
Temperature: 63°F , 17°C
Dew Point: 41°F , 5°C
Humidity: 45%
Barometer: 30.09 inHg , 1019 hPa
Clouds: Few Clouds
Visibility: 10 miles , 16 km
Cloud details: Few Clouds 4500 ft
2019/10/16 21:50 KBYH 162150Z 30009G15KT 10SM FEW045 17/05 A3009 RMK LAST
KM19 - Newport, Arkansas
Updated: Thu, Oct-Thu-2019 6:56am
Clear
Clear
 Wind from N
Wind: N 6 mph , 9 km/h
Temperature: 39°F , 4°C
Wind Chill: 35°F , 2°C
Dew Point: 39°F , 4°C
Humidity: 100%
Barometer: 30.13 inHg , 1020.3 hPa
Clouds: Clear
Visibility: 10 miles , 16 km
2019/10/17 11:56 KM19 171156Z AUTO 35005KT 10SM CLR 04/04 A3013 RMK AO2 SLP201 T00440039 10072 20044 58002
KSRC - Searcy, Arkansas
Updated: Thu, Oct-Thu-2019 6:56am
Clear
Clear
 Wind from NNW
Wind: NNW 3 mph , 6 km/h
Temperature: 43°F , 6°C
Dew Point: 43°F , 6°C
Humidity: 100%
Barometer: 30.12 inHg , 1020 hPa
Clouds: Clear
Visibility: 10 miles , 16 km
2019/10/17 11:56 KSRC 171156Z AUTO 34003KT 10SM CLR 06/06 A3012 RMK AO2 SLP203 T00610056 10078 20061 58000
 
KARG - Walnut Ridge, Arkansas
Updated: Thu, Oct-Thu-2019 6:56am
Clear
Clear
 Wind from NNW
Wind: NNW 5 mph , 7 km/h
Temperature: 39°F , 4°C
Wind Chill: 35°F , 2°C
Dew Point: 37°F , 3°C
Humidity: 93%
Barometer: 30.12 inHg , 1020 hPa
Clouds: Clear
Visibility: 10 miles , 16 km
2019/10/17 11:56 KARG 171156Z AUTO 33004KT 10SM CLR 04/03 A3012 RMK AO2 SLP202 T00390028 10078 20039 50002
KJBR - Jonesboro, Arkansas
Updated: Thu, Oct-Thu-2019 6:53am
Clear
Clear
 Wind from calm
Wind: Calm
Temperature: 45°F , 7°C
Dew Point: 39°F , 4°C
Humidity: 81%
Barometer: 30.12 inHg , 1020 hPa
Clouds: Clear
2019/10/17 11:53 KJBR 171153Z AUTO 00000KT CLR 07/04 A3012 RMK AO2 SLP199 T00670039 10089 20067 51003 $
K4M9 - Corning, Arkansas
Updated: Thu, Oct-Thu-2019 7:15am
Clear
Clear
 Wind from NW
Wind: NW 3 mph , 6 km/h
Temperature: 39°F , 4°C
Dew Point: 39°F , 4°C
Humidity: 100%
Barometer: 30.13 inHg , 1020.3 hPa
Clouds: Clear
Visibility: 10 miles , 16 km
2019/10/17 12:15 K4M9 171215Z AUTO 31003KT 10SM CLR 04/04 A3013 RMK AO2 PWINO
 
KLRF - Little Rock Afb, Arkansas
Updated: Thu, Oct-Thu-2019 6:56am
Clear
Clear
 Wind from calm
Wind: Calm
Temperature: 43°F , 6°C
Dew Point: 39°F , 4°C
Humidity: 87%
Barometer: 30.11 inHg , 1019.6 hPa
Clouds: Clear
Visibility: 10 miles , 16 km
2019/10/17 11:56 KLRF 171156Z 00000KT 10SM CLR 06/04 A3011 RMK AO2A SLPNO ALSTG ESTMD 50000 $
KLIT - Little Rock, Arkansas
Updated: Thu, Oct-Thu-2019 6:53am
Few Clouds
Few Clouds
 Wind from N
Wind: N 6 mph , 9 km/h
Temperature: 43°F , 6°C
Wind Chill: 39°F , 4°C
Dew Point: 39°F , 4°C
Humidity: 87%
Barometer: 30.11 inHg , 1019.6 hPa
Clouds: Few Clouds
Visibility: 10 miles , 16 km
Cloud details: Few Clouds 25000 ft
2019/10/17 11:53 KLIT 171153Z 01005KT 10SM FEW250 06/04 A3011 RMK AO2 SLP198 T00560044 10094 20056 50000
KSGT - Stuttgart, Arkansas
Updated: Thu, Oct-Thu-2019 6:56am
Clear
Clear
 Wind from N
Wind: N 8 mph , 13 km/h
Temperature: 45°F , 7°C
Wind Chill: 41°F , 5°C
Dew Point: 43°F , 6°C
Humidity: 93%
Barometer: 30.11 inHg , 1019.6 hPa
Clouds: Clear
Visibility: 10 miles , 16 km
2019/10/17 11:56 KSGT 171156Z AUTO 01007KT 10SM CLR 07/06 A3011 RMK AO2 SLP196 T00670056 10094 20067 50004
 
KAWM - West Memphis, Arkansas
Updated: Thu, Oct-Thu-2019 6:53am
Clear
Clear
 Wind from calm
Wind: Calm
Temperature: 43°F , 6°C
Dew Point: 43°F , 6°C
Humidity: 100%
Barometer: 30.10 inHg , 1019.3 hPa
Clouds: Clear
Visibility: 9 miles , 14 km
2019/10/17 11:53 KAWM 171153Z AUTO 00000KT 9SM CLR 06/06 A3010 RMK AO2 SLP194 T00610056 10094 20056 51005 $
KFSM - Fort Smith, Arkansas
Updated: Thu, Oct-Thu-2019 7:18am
Fog, Overcast
Fog, Overcast
 Wind from ENE
Wind: ENE 5 mph , 7 km/h
Temperature: 45°F , 7°C
Wind Chill: 42°F , 6°C
Dew Point: 45°F , 7°C
Humidity: 100%
Barometer: 30.10 inHg , 1019.3 hPa
Summary: Fog
Clouds: Overcast
Visibility: 1/4 mile , 0.4 km
Cloud details: Overcast 200 ft
2019/10/17 12:18 KFSM 171218Z 06004KT 1/4SM R25/1400V2200FT FG VV002 07/07 A3010 RMK AO2 T00720072
KMWT - Mount Ida, Arkansas
Updated: Thu, Oct-Thu-2019 6:53am
Clear
Clear
 Wind from calm
Wind: Calm
Temperature: 39°F , 4°C
Dew Point: 37°F , 3°C
Humidity: 93%
Barometer: 30.07 inHg , 1018.3 hPa
Clouds: Clear
Visibility: 7 miles , 11 km
2019/10/17 11:53 KMWT 171153Z AUTO 00000KT 7SM CLR 04/03 A3007 RMK AO2 SLP188 T00390028 10067 20039 56004
 
KMEZ - Mena, Arkansas
Updated: Thu, Oct-Thu-2019 5:55am
NOT Current
Clear
Clear
 Wind from calm
Wind: Calm
Temperature: 41°F , 5°C
Dew Point: 39°F , 4°C
Humidity: 93%
Barometer: 30.10 inHg , 1019.3 hPa
Clouds: Clear
Visibility: 7 miles , 11 km
2019/10/17 10:55 KMEZ 171055Z AUTO 00000KT 7SM CLR 05/04 A3010 RMK AO2
KHOT - Hot Springs, Arkansas
Updated: Thu, Oct-Thu-2019 6:53am
Clear
Clear
 Wind from calm
Wind: Calm
Temperature: 43°F , 6°C
Dew Point: 43°F , 6°C
Humidity: 100%
Barometer: 30.10 inHg , 1019.3 hPa
Clouds: Clear
Visibility: 10 miles , 16 km
2019/10/17 11:53 KHOT 171153Z AUTO 00000KT 10SM CLR 06/06 A3010 RMK AO2 SLP191 T00560056 10089 20044 58006
KADF - Arkadelphia, Arkansas
Updated: Thu, Oct-Thu-2019 6:56am
Clear
Clear
 Wind from calm
Wind: Calm
Temperature: 45°F , 7°C
Dew Point: 45°F , 7°C
Humidity: 100%
Barometer: 30.11 inHg , 1019.6 hPa
Clouds: Clear
Visibility: 10 miles , 16 km
2019/10/17 11:56 KADF 171156Z AUTO 00000KT 10SM CLR 07/07 A3011 RMK AO2 SLP200 T00670067 10083 20061 55004
 
KSGT - Stuttgart, Arkansas
Updated: Thu, Oct-Thu-2019 6:56am
Clear
Clear
 Wind from N
Wind: N 8 mph , 13 km/h
Temperature: 45°F , 7°C
Wind Chill: 41°F , 5°C
Dew Point: 43°F , 6°C
Humidity: 93%
Barometer: 30.11 inHg , 1019.6 hPa
Clouds: Clear
Visibility: 10 miles , 16 km
2019/10/17 11:56 KSGT 171156Z AUTO 01007KT 10SM CLR 07/06 A3011 RMK AO2 SLP196 T00670056 10094 20067 50004
KPBF - Pine Bluff, Arkansas
Updated: Thu, Oct-Thu-2019 6:53am
Clear
Clear
 Wind from N
Wind: N 6 mph , 9 km/h
Temperature: 45°F , 7°C
Wind Chill: 42°F , 6°C
Dew Point: 43°F , 6°C
Humidity: 93%
Barometer: 30.10 inHg , 1019.3 hPa
Clouds: Clear
Visibility: 10 miles , 16 km
2019/10/17 11:53 KPBF 171153Z AUTO 01005KT 10SM CLR 07/06 A3010 RMK AO2 SLP191 T00720056 10083 20044 50000
KSRC - Searcy, Arkansas
Updated: Thu, Oct-Thu-2019 6:56am
Clear
Clear
 Wind from NNW
Wind: NNW 3 mph , 6 km/h
Temperature: 43°F , 6°C
Dew Point: 43°F , 6°C
Humidity: 100%
Barometer: 30.12 inHg , 1020 hPa
Clouds: Clear
Visibility: 10 miles , 16 km
2019/10/17 11:56 KSRC 171156Z AUTO 34003KT 10SM CLR 06/06 A3012 RMK AO2 SLP203 T00610056 10078 20061 58000
 
KRUE - Russellville, Arkansas
Updated: Thu, Oct-Thu-2019 6:53am
Mist, Clear
Mist, Clear
 Wind from calm
Wind: Calm
Temperature: 39°F , 4°C
Dew Point: 37°F , 3°C
Humidity: 93%
Barometer: 30.11 inHg , 1019.6 hPa
Summary: Mist
Clouds: Clear
Visibility: 6 miles , 10 km
2019/10/17 11:53 KRUE 171153Z AUTO 00000KT 6SM BR CLR 04/03 A3011 RMK AO2 SLP192 T00390033 10067 20039 58003
KCCA - Clinton, Arkansas
Updated: Thu, Oct-Thu-2019 7:35am
Clear
Clear
 Wind from calm
Wind: Calm
Temperature: 37°F , 3°C
Dew Point: 37°F , 3°C
Humidity: 100%
Barometer: 30.12 inHg , 1020 hPa
Clouds: Clear
Visibility: 9 miles , 14 km
2019/10/17 12:35 KCCA 171235Z AUTO 00000KT 9SM CLR 03/03 A3012 RMK AO2
KLLQ - Monticello, Arkansas
Updated: Thu, Oct-Thu-2019 6:53am
Clear
Clear
 Wind from calm
Wind: Calm
Temperature: 43°F , 6°C
Dew Point: 41°F , 5°C
Humidity: 93%
Barometer: 30.10 inHg , 1019.3 hPa
Clouds: Clear
Visibility: 10 miles , 16 km
2019/10/17 11:53 KLLQ 171153Z AUTO 00000KT 10SM CLR 06/05 A3010 RMK AO2 SLP192 T00610050 10089 20061 53002
 
KCDH - Camden, Arkansas
Updated: Thu, Oct-Thu-2019 7:15am
Mist, Clear
Mist, Clear
 Wind from calm
Wind: Calm
Temperature: 43°F , 6°C
Dew Point: 39°F , 4°C
Humidity: 87%
Barometer: 30.11 inHg , 1019.6 hPa
Summary: Mist
Clouds: Clear
Visibility: 5 miles , 8 km
2019/10/17 12:15 KCDH 171215Z AUTO 00000KT 5SM BR CLR 06/04 A3011 RMK AO2
KM19 - Newport, Arkansas
Updated: Thu, Oct-Thu-2019 6:56am
Clear
Clear
 Wind from N
Wind: N 6 mph , 9 km/h
Temperature: 39°F , 4°C
Wind Chill: 35°F , 2°C
Dew Point: 39°F , 4°C
Humidity: 100%
Barometer: 30.13 inHg , 1020.3 hPa
Clouds: Clear
Visibility: 10 miles , 16 km
2019/10/17 11:56 KM19 171156Z AUTO 35005KT 10SM CLR 04/04 A3013 RMK AO2 SLP201 T00440039 10072 20044 58002
KDEQ - De Queen, Arkansas
Updated: Thu, Oct-Thu-2019 7:23am
Fog
Fog
 Wind from calm
Wind: Calm
Temperature: 43°F , 6°C
Dew Point: 39°F , 4°C
Humidity: 87%
Barometer: 30.07 inHg , 1018.3 hPa
Summary: Fog
Visibility: 1/4 mile , 0.4 km
2019/10/17 12:23 KDEQ 171223Z AUTO 00000KT 1/4SM FG 06/04 A3007 RMK AO2 T00560044
 
KTXK - Texarkana, Arkansas
Updated: Thu, Oct-Thu-2019 6:53am
Clear
Clear
 Wind from NNE
Wind: NNE 3 mph , 6 km/h
Temperature: 45°F , 7°C
Dew Point: 45°F , 7°C
Humidity: 100%
Barometer: 30.09 inHg , 1019 hPa
Clouds: Clear
Visibility: 7 miles , 11 km
2019/10/17 11:53 KTXK 171153Z 03003KT 7SM CLR 07/07 A3009 RMK AO2 SLP187 T00720067 10100 20072 55004
KELD - El Dorado, Arkansas
Updated: Thu, Oct-Thu-2019 6:53am
Clear
Clear
 Wind from calm
Wind: Calm
Temperature: 45°F , 7°C
Dew Point: 45°F , 7°C
Humidity: 100%
Barometer: 30.10 inHg , 1019.3 hPa
Clouds: Clear
Visibility: 10 miles , 16 km
2019/10/17 11:53 KELD 171153Z AUTO 00000KT 10SM CLR 07/07 A3010 RMK AO2 SLP193 T00670067 10083 20067 53002
KCSM - Clinton, Oklahoma
Updated: Thu, Oct-Thu-2019 6:53am
Light rain, Clear
Light rain, Clear
 Wind from SSW
Wind: SSW 16 mph , 26 km/h
Temperature: 46°F , 8°C
Wind Chill: 39°F , 4°C
Dew Point: 30°F , -1°C
Humidity: 53%
Barometer: 30.02 inHg , 1016.6 hPa
Summary: Light rain
Clouds: Clear
Visibility: 6 miles , 10 km
2019/10/17 11:53 KCSM 171153Z AUTO 20014KT 6SM -RA CLR 08/M01 A3002 RMK AO2 SLP159 P0000 60000 T00781006 10106 20078 56012
 
KHBR - Hobart, Oklahoma
Updated: Thu, Oct-Thu-2019 6:53am
Clear
Clear
 
Temperature: 46°F , 8°C
Dew Point: 36°F , 2°C
Humidity: 66%
Barometer: 30.04 inHg , 1017.3 hPa
Clouds: Clear
Visibility: 10 miles , 16 km
2019/10/17 11:53 KHBR 171153Z AUTO 10SM CLR 08/02 A3004 RMK AO2 SLP168 T00780017 10111 20072 58009 $
KLTS - Altus Afb, Oklahoma
Updated: Thu, Oct-Thu-2019 6:56am
Clear
Clear
 Wind from ESE
Wind: ESE 3 mph , 6 km/h
Temperature: 39°F , 4°C
Dew Point: 32°F , 0°C
Humidity: 75%
Barometer: 30.05 inHg , 1017.6 hPa
Clouds: Clear
Visibility: 10 miles , 16 km
2019/10/17 11:56 KLTS 171156Z 11003KT 10SM CLR 04/00 A3005 RMK AO2A SLP176 T00371003 10082 20026 57008 $
KFSI - Fort Sill, Oklahoma
Updated: Thu, Oct-Thu-2019 6:56am
Clear
Clear
 Wind from calm
Wind: Calm
Temperature: 39°F , 4°C
Dew Point: 37°F , 3°C
Humidity: 93%
Barometer: 30.04 inHg , 1017.3 hPa
Clouds: Clear
Visibility: 10 miles , 16 km
2019/10/17 11:56 KFSI 171156Z 00000KT 10SM CLR 04/03 A3004 RMK AO2A SLP171 T00420027 10091 20042 57004
 
KGAG - Gage, Oklahoma
Updated: Thu, Oct-Thu-2019 6:53am
Clear
Clear
 Wind from S
Wind: S 17 mph , 28 km/h
Temperature: 52°F , 11°C
Dew Point: 30°F , -1°C
Humidity: 44%
Barometer: 29.98 inHg , 1015.2 hPa
Clouds: Clear
Visibility: 10 miles , 16 km
2019/10/17 11:53 KGAG 171153Z AUTO 19015KT 10SM CLR 11/M01 A2998 RMK AO2 SLP140 T01111006 10122 20106 57010
KWWR - Woodward, Oklahoma
Updated: Thu, Oct-Thu-2019 7:15am
Clear
Clear
 Wind from S
Wind: S 16 mph , 26 km/h, Gust: 21 mph , 33 km/h
Temperature: 52°F , 11°C
Dew Point: 32°F , 0°C
Humidity: 47%
Barometer: 29.99 inHg , 1015.6 hPa
Clouds: Clear
Visibility: 10 miles , 16 km
2019/10/17 12:15 KWWR 171215Z AUTO 19014G18KT 10SM CLR 11/00 A2999 RMK AO2
KLAW - Lawton, Oklahoma
Updated: Thu, Oct-Thu-2019 6:53am
Clear
Clear
 Wind from calm
Wind: Calm
Temperature: 37°F , 3°C
Dew Point: 36°F , 2°C
Humidity: 93%
Barometer: 30.06 inHg , 1017.9 hPa
Clouds: Clear
Visibility: 10 miles , 16 km
2019/10/17 11:53 KLAW 171153Z AUTO 00000KT 10SM CLR 03/02 A3006 RMK AO2 SLP179 T00330022 10056 20028 58004
 
KOKC - Oklahoma City, Oklahoma
Updated: Thu, Oct-Thu-2019 6:52am
Few Clouds
Few Clouds
 Wind from S
Wind: S 7 mph , 11 km/h
Temperature: 39°F , 4°C
Wind Chill: 34°F , 1°C
Dew Point: 37°F , 3°C
Humidity: 93%
Barometer: 30.04 inHg , 1017.3 hPa
Clouds: Few Clouds
Visibility: 10 miles , 16 km
Cloud details: Few Clouds 25000 ft
2019/10/17 11:52 KOKC 171152Z 17006KT 10SM FEW250 04/03 A3004 RMK AO2 SLP171 T00440028 10072 20039 58006
KEND - Enid/Vance Afb, Oklahoma
Updated: Thu, Oct-Thu-2019 7:16am
Clear
Clear
 Wind from SE
Wind: SE 5 mph , 7 km/h
Temperature: 46°F , 8°C
Wind Chill: 44°F , 7°C
Dew Point: 37°F , 3°C
Humidity: 71%
Barometer: 30.00 inHg , 1015.9 hPa
Clouds: Clear
Visibility: 10 miles , 16 km
2019/10/17 12:16 KEND 171216Z AUTO 14004KT 10SM CLR 08/03 A3000 RMK AO2 SLP161 $
KFDR - Frederick/Altus, Oklahoma
Updated: Thu, Oct-Thu-2019 6:53am
Clear
Clear
 Wind from SSW
Wind: SSW 3 mph , 6 km/h
Temperature: 46°F , 8°C
Dew Point: 36°F , 2°C
Humidity: 66%
Barometer: 30.03 inHg , 1016.9 hPa
Clouds: Clear
Visibility: 9 miles , 14 km
2019/10/17 11:53 KFDR 171153Z AUTO 21003KT 9SM CLR 08/02 A3003 RMK AO2 SLP161 T00830017 10100 20067 58003
 
KOUN - Norman, Oklahoma
Updated: Thu, Oct-Thu-2019 7:15am
Clear
Clear
 Wind from S
Wind: S 8 mph , 13 km/h
Temperature: 45°F , 7°C
Wind Chill: 41°F , 5°C
Dew Point: 39°F , 4°C
Humidity: 81%
Barometer: 30.03 inHg , 1016.9 hPa
Clouds: Clear
Visibility: 10 miles , 16 km
2019/10/17 12:15 KOUN 171215Z AUTO 18007KT 10SM CLR 07/04 A3003 RMK AO2 T00660038
KTIK - Tinker Afb, Oklahoma
Updated: Thu, Oct-Thu-2019 6:56am
Clear
Clear
 Wind from S
Wind: S 12 mph , 19 km/h
Temperature: 45°F , 7°C
Wind Chill: 39°F , 4°C
Dew Point: 37°F , 3°C
Humidity: 76%
Barometer: 30.03 inHg , 1016.9 hPa
Clouds: Clear
Visibility: 10 miles , 16 km
2019/10/17 11:56 KTIK 171156Z AUTO 18010KT 10SM CLR 07/03 A3003 RMK AO2 SLP176 T00670033 10097 20061 55008 $
KGOK - Guthrie, Oklahoma
Updated: Thu, Oct-Thu-2019 6:53am
Clear
Clear
 Wind from SSE
Wind: SSE 8 mph , 13 km/h
Temperature: 46°F , 8°C
Wind Chill: 42°F , 6°C
Dew Point: 37°F , 3°C
Humidity: 71%
Barometer: 30.03 inHg , 1016.9 hPa
Clouds: Clear
Visibility: 10 miles , 16 km
2019/10/17 11:53 KGOK 171153Z AUTO 16007KT 10SM CLR 08/03 A3003 RMK AO2 SLP171 T00780028 10100 20067 56010
 
KSNL - Shawnee, Oklahoma
Updated: Thu, Oct-Thu-2019 7:15am
Clear
Clear
 Wind from S
Wind: S 3 mph , 6 km/h
Temperature: 43°F , 6°C
Dew Point: 39°F , 4°C
Humidity: 87%
Barometer: 30.06 inHg , 1017.9 hPa
Clouds: Clear
Visibility: 10 miles , 16 km
2019/10/17 12:15 KSNL 171215Z AUTO 17003KT 10SM CLR 06/04 A3006 RMK AO2 T00570035 TSNO
KCQB - Chandler, Oklahoma
Updated: Thu, Oct-Thu-2019 7:15am
Clear
Clear
 Wind from S
Wind: S 8 mph , 13 km/h
Temperature: 45°F , 7°C
Wind Chill: 41°F , 5°C
Dew Point: 39°F , 4°C
Humidity: 81%
Barometer: 30.05 inHg , 1017.6 hPa
Clouds: Clear
Visibility: 10 miles , 16 km
2019/10/17 12:15 KCQB 171215Z AUTO 17007KT 10SM CLR 07/04 A3005 RMK AO2 T00660043
KPVJ - Pauls Valley, Oklahoma
Updated: Thu, Oct-Thu-2019 7:15am
Clear
Clear
 Wind from calm
Wind: Calm
Temperature: 41°F , 5°C
Dew Point: 41°F , 5°C
Humidity: 100%
Barometer: 30.06 inHg , 1017.9 hPa
Clouds: Clear
Visibility: 10 miles , 16 km
2019/10/17 12:15 KPVJ 171215Z AUTO 00000KT 10SM CLR 05/05 A3006 RMK AO2 T00470047
 
KEND - Enid/Vance Afb, Oklahoma
Updated: Thu, Oct-Thu-2019 7:16am
Clear
Clear
 Wind from SE
Wind: SE 5 mph , 7 km/h
Temperature: 46°F , 8°C
Wind Chill: 44°F , 7°C
Dew Point: 37°F , 3°C
Humidity: 71%
Barometer: 30.00 inHg , 1015.9 hPa
Clouds: Clear
Visibility: 10 miles , 16 km
2019/10/17 12:16 KEND 171216Z AUTO 14004KT 10SM CLR 08/03 A3000 RMK AO2 SLP161 $
KSWO - Stillwater, Oklahoma
Updated: Thu, Oct-Thu-2019 6:53am
Clear
Clear
 Wind from SSE
Wind: SSE 7 mph , 11 km/h
Temperature: 45°F , 7°C
Wind Chill: 41°F , 5°C
Dew Point: 39°F , 4°C
Humidity: 81%
Barometer: 30.03 inHg , 1016.9 hPa
Clouds: Clear
Visibility: 10 miles , 16 km
2019/10/17 11:53 KSWO 171153Z AUTO 16006KT 10SM CLR 07/04 A3003 RMK AO2 SLP165 T00670039 10072 20044 58013
KFSI - Fort Sill, Oklahoma
Updated: Thu, Oct-Thu-2019 6:56am
Clear
Clear
 Wind from calm
Wind: Calm
Temperature: 39°F , 4°C
Dew Point: 37°F , 3°C
Humidity: 93%
Barometer: 30.04 inHg , 1017.3 hPa
Clouds: Clear
Visibility: 10 miles , 16 km
2019/10/17 11:56 KFSI 171156Z 00000KT 10SM CLR 04/03 A3004 RMK AO2A SLP171 T00420027 10091 20042 57004
 
KDUC - Duncan, Oklahoma
Updated: Thu, Oct-Thu-2019 7:15am
Clear
Clear
 Wind from ESE
Wind: ESE 3 mph , 6 km/h
Temperature: 41°F , 5°C
Dew Point: 37°F , 3°C
Humidity: 87%
Barometer: 30.07 inHg , 1018.3 hPa
Clouds: Clear
Visibility: 10 miles , 16 km
2019/10/17 12:15 KDUC 171215Z AUTO 12003KT 10SM CLR 05/03 A3007 RMK AO2 T00540028
KOKM - Okmulgee, Oklahoma
Updated: Thu, Oct-Thu-2019 7:15am
Clear
Clear
 Wind from calm
Wind: Calm
Temperature: 39°F , 4°C
Dew Point: 39°F , 4°C
Humidity: 100%
Barometer: 30.07 inHg , 1018.3 hPa
Clouds: Clear
Visibility: 7 miles , 11 km
2019/10/17 12:15 KOKM 171215Z AUTO 00000KT 7SM CLR 04/04 A3007 RMK AO2 T00350035
KMLC - Mcalester, Oklahoma
Updated: Thu, Oct-Thu-2019 6:53am
Mostly cloudy
Mostly cloudy
 Wind from calm
Wind: Calm
Temperature: 39°F , 4°C
Dew Point: 37°F , 3°C
Humidity: 93%
Barometer: 30.10 inHg , 1019.3 hPa
Clouds: Mostly cloudy
Visibility: 10 miles , 16 km
Cloud details: Few Clouds 7000 ft
Few Clouds 9000 ft
Mostly cloudy 11000 ft
2019/10/17 11:53 KMLC 171153Z AUTO 00000KT 10SM FEW070 FEW090 BKN110 04/03 A3010 RMK AO2 SLP191 T00390028 10067 20039 56001
 
KMKO - Muskogee, Oklahoma
Updated: Thu, Oct-Thu-2019 6:53am
Mist, Clear
Mist, Clear
 Wind from S
Wind: S 6 mph , 9 km/h
Temperature: 39°F , 4°C
Wind Chill: 35°F , 2°C
Dew Point: 39°F , 4°C
Humidity: 100%
Barometer: 30.10 inHg , 1019.3 hPa
Summary: Mist
Clouds: Clear
Visibility: 6 miles , 10 km
2019/10/17 11:53 KMKO 171153Z AUTO 17005KT 6SM BR CLR 04/04 A3010 RMK AO2 SLP193 T00440039 10067 20039 56003
KRVS - Tulsa, Oklahoma
Updated: Thu, Oct-Thu-2019 6:53am
Clear
Clear
 Wind from calm
Wind: Calm
Temperature: 43°F , 6°C
Dew Point: 39°F , 4°C
Humidity: 87%
Barometer: 30.07 inHg , 1018.3 hPa
Clouds: Clear
Visibility: 8 miles , 13 km
2019/10/17 11:53 KRVS 171153Z AUTO 00000KT 8SM CLR 06/04 A3007 RMK AO2 SLP186 T00560044 10072 20050 58013
KGZL - Stigler, Oklahoma
Updated: Thu, Oct-Thu-2019 7:15am
Few Clouds
Few Clouds
 Wind from calm
Wind: Calm
Temperature: 43°F , 6°C
Dew Point: 43°F , 6°C
Humidity: 100%
Barometer: 30.09 inHg , 1019 hPa
Clouds: Few Clouds
Visibility: 10 miles , 16 km
Cloud details: Few Clouds 1500 ft
2019/10/17 12:15 KGZL 171215Z AUTO 00000KT 10SM FEW015 06/06 A3009 RMK AO2
 
KADH - Ada, Oklahoma
Updated: Thu, Oct-Thu-2019 7:15am
Clear
Clear
 Wind from S
Wind: S 3 mph , 6 km/h
Temperature: 45°F , 7°C
Dew Point: 39°F , 4°C
Humidity: 81%
Barometer: 30.07 inHg , 1018.3 hPa
Clouds: Clear
Visibility: 10 miles , 16 km
2019/10/17 12:15 KADH 171215Z AUTO 18003KT 10SM CLR 07/04 A3007 RMK AO2
KAQR - Atoka, Oklahoma
Updated: Thu, Oct-Thu-2019 7:15am
Clear
Clear
 Wind from calm
Wind: Calm
Temperature: 37°F , 3°C
Dew Point: 37°F , 3°C
Humidity: 100%
Clouds: Clear
Visibility: 10 miles , 16 km
2019/10/17 12:15 KAQR 171215Z AUTO 00000KT 10SM CLR 03/03 RMK AO2
KJSV - Sallisaw, Oklahoma
Updated: Thu, Oct-Thu-2019 7:15am
Clear
Clear
 Wind from calm
Wind: Calm
Temperature: 41°F , 5°C
Dew Point: 39°F , 4°C
Humidity: 93%
Barometer: 30.10 inHg , 1019.3 hPa
Clouds: Clear
Visibility: 7 miles , 11 km
2019/10/17 12:15 KJSV 171215Z AUTO 00000KT 7SM CLR 05/04 A3010 RMK AO2
 
KTQH - Tahlequah, Oklahoma
Updated: Thu, Oct-Thu-2019 7:15am
Clear
Clear
 Wind from calm
Wind: Calm
Temperature: 37°F , 3°C
Dew Point: 36°F , 2°C
Humidity: 93%
Barometer: 30.09 inHg , 1019 hPa
Clouds: Clear
Visibility: 10 miles , 16 km
2019/10/17 12:15 KTQH 171215Z AUTO 00000KT 10SM CLR 03/02 A3009 RMK AO2
KGCM - Claremore, Oklahoma
Updated: Thu, Oct-Thu-2019 7:15am
Clear
Clear
 Wind from calm
Wind: Calm
Temperature: 39°F , 4°C
Dew Point: 37°F , 3°C
Humidity: 93%
Barometer: 30.08 inHg , 1018.6 hPa
Clouds: Clear
Visibility: 7 miles , 11 km
2019/10/17 12:15 KGCM 171215Z AUTO 00000KT 7SM CLR 04/03 A3008 RMK AO2
KRKR - Poteau, Oklahoma
Updated: Thu, Oct-Thu-2019 7:15am
Fog, Overcast
Fog, Overcast
 Wind from calm
Wind: Calm
Temperature: 37°F , 3°C
Dew Point: 36°F , 2°C
Humidity: 93%
Barometer: 30.11 inHg , 1019.6 hPa
Summary: Fog
Clouds: Overcast
Visibility: 1/2 mile , 0.8 km
Cloud details: Overcast 100 ft
2019/10/17 12:15 KRKR 171215Z AUTO 00000KT 1/2SM FG OVC001 03/02 A3011 RMK AO2
 
KGMJ - Grove, Oklahoma
Updated: Thu, Oct-Thu-2019 7:15am
Clear
Clear
 Wind from calm
Wind: Calm
Temperature: 37°F , 3°C
Dew Point: 37°F , 3°C
Humidity: 100%
Barometer: 30.09 inHg , 1019 hPa
Clouds: Clear
Visibility: 7 miles , 11 km
2019/10/17 12:15 KGMJ 171215Z AUTO 00000KT 7SM CLR 03/03 A3009 RMK AO2
K4O4 - Idabel, Oklahoma
Updated: Thu, Oct-Thu-2019 7:15am
Clear
Clear
 Wind from NE
Wind: NE 3 mph , 6 km/h
Temperature: 41°F , 5°C
Dew Point: 39°F , 4°C
Humidity: 93%
Barometer: 30.05 inHg , 1017.6 hPa
Clouds: Clear
Visibility: 7 miles , 11 km
2019/10/17 12:15 K4O4 171215Z AUTO 04003KT 7SM CLR 05/04 A3005 RMK AO2
KHHW - Hugo, Oklahoma
Updated: Wed, Jun-Wed-2019 9:18am
NOT Current
Clear
Clear
 Wind from WSW
Wind: WSW 8 mph , 13 km/h
Temperature: 70°F , 21°C
Dew Point: 61°F , 16°C
Humidity: 73%
Barometer: 30.00 inHg , 1015.9 hPa
Clouds: Clear
Visibility: 10 miles , 16 km
2019/06/12 14:18 KHHW 121418Z 24007KT 10SM CLR 21/16 A3000
 
KDUA - Durant, Oklahoma
Updated: Thu, Oct-Thu-2019 6:55am
Mist, Overcast
Mist, Overcast
 Wind from calm
Wind: Calm
Temperature: 45°F , 7°C
Dew Point: 41°F , 5°C
Humidity: 87%
Barometer: 30.09 inHg , 1019 hPa
Summary: Mist
Clouds: Overcast
Visibility: 1 mile , 2 km
Cloud details: Overcast 700 ft
2019/10/17 11:55 KDUA 171155Z AUTO 00000KT 1SM BR VV007 07/05 A3009 RMK AO2
KSTJ - St. Joseph, Missouri
Updated: Thu, Oct-Thu-2019 6:53am
Mist, Clear
Mist, Clear
 Wind from SSE
Wind: SSE 6 mph , 9 km/h
Temperature: 39°F , 4°C
Wind Chill: 35°F , 2°C
Dew Point: 37°F , 3°C
Humidity: 93%
Barometer: 30.03 inHg , 1016.9 hPa
Summary: Mist
Clouds: Clear
Visibility: 6 miles , 10 km
2019/10/17 11:53 KSTJ 171153Z 15005KT 6SM BR CLR 04/03 A3003 RMK AO2 SLP173 T00440028 10050 20028 50000
KMCI - Kansas City/Intl, Missouri
Updated: Thu, Oct-Thu-2019 6:53am
Clear
Clear
 Wind from S
Wind: S 9 mph , 15 km/h
Temperature: 39°F , 4°C
Wind Chill: 33°F , 1°C
Dew Point: 30°F , -1°C
Humidity: 70%
Barometer: 30.04 inHg , 1017.3 hPa
Clouds: Clear
Visibility: 10 miles , 16 km
2019/10/17 11:53 KMCI 171153Z 17008KT 10SM CLR 04/M01 A3004 RMK AO2 SLP173 T00441006 10056 20028 56003
 
KMKC - Kansas City/Dntn, Missouri
Updated: Thu, Oct-Thu-2019 6:54am
Clear
Clear
 Wind from S
Wind: S 5 mph , 7 km/h
Temperature: 43°F , 6°C
Wind Chill: 40°F , 4°C
Dew Point: 37°F , 3°C
Humidity: 81%
Barometer: 30.05 inHg , 1017.6 hPa
Clouds: Clear
Visibility: 10 miles , 16 km
2019/10/17 11:54 KMKC 171154Z 19004KT 10SM CLR 06/03 A3005 RMK AO2 SLP176 T00610028 10083 20056 58003
KCDJ - Chillicothe, Missouri
Updated: Thu, Oct-Thu-2019 6:52am

 Wind from calm
Wind: Calm
Temperature: 36°F , 2°C
Dew Point: 36°F , 2°C
Humidity: 100%
Barometer: 30.07 inHg , 1018.3 hPa
2019/10/17 11:52 KCDJ 171152Z AUTO 00000KT 02/02 A3007 RMK AO1 SLP190 T00170017 10028 20017 56005
KIRK - Kirksville, Missouri
Updated: Thu, Oct-Thu-2019 7:16am
Mist, Clear
Mist, Clear
 Wind from SSW
Wind: SSW 5 mph , 7 km/h
Temperature: 36°F , 2°C
Wind Chill: 32°F , 0°C
Dew Point: 36°F , 2°C
Humidity: 100%
Barometer: 30.07 inHg , 1018.3 hPa
Summary: Mist
Clouds: Clear
Visibility: 3 miles , 5 km
2019/10/17 12:16 KIRK 171216Z AUTO 20004KT 3SM BR CLR 02/02 A3007 RMK AO2 T00220017
 
KSZL - Whiteman Afb, Missouri
Updated: Thu, Oct-Thu-2019 6:56am
Clear
Clear
 Wind from S
Wind: S 7 mph , 11 km/h
Temperature: 37°F , 3°C
Wind Chill: 32°F , 0°C
Dew Point: 37°F , 3°C
Humidity: 100%
Barometer: 30.04 inHg , 1017.3 hPa
Clouds: Clear
Visibility: 10 miles , 16 km
2019/10/17 11:56 KSZL 171156Z 17006KT 10SM CLR 03/03 A3004 RMK AO2A SLP179 T00340034 10036 20024 52003 $
KDMO - Sedalia, Missouri
Updated: Thu, Oct-Thu-2019 6:53am
Clear
Clear
 Wind from SSW
Wind: SSW 6 mph , 9 km/h
Temperature: 39°F , 4°C
Wind Chill: 35°F , 2°C
Dew Point: 37°F , 3°C
Humidity: 93%
Barometer: 30.09 inHg , 1019 hPa
Clouds: Clear
Visibility: 10 miles , 16 km
2019/10/17 11:53 KDMO 171153Z AUTO 20005KT 10SM CLR 04/03 A3009 RMK AO2 SLP195 T00390028 10044 20022 51003
KGLY - Clinton, Missouri
Updated: Thu, Oct-Thu-2019 6:55am
Clear
Clear
 Wind from calm
Wind: Calm
Temperature: 37°F , 3°C
Dew Point: 37°F , 3°C
Humidity: 100%
Barometer: 30.09 inHg , 1019 hPa
Clouds: Clear
Visibility: 7 miles , 11 km
2019/10/17 11:55 KGLY 171155Z AUTO 00000KT 7SM CLR 03/03 A3009 RMK AO2
 
KCOU - Columbia, Missouri
Updated: Thu, Oct-Thu-2019 6:54am
Clear
Clear
 Wind from S
Wind: S 6 mph , 9 km/h
Temperature: 37°F , 3°C
Wind Chill: 32°F , 0°C
Dew Point: 34°F , 1°C
Humidity: 87%
Barometer: 30.09 inHg , 1019 hPa
Clouds: Clear
Visibility: 10 miles , 16 km
2019/10/17 11:54 KCOU 171154Z 19005KT 10SM CLR 03/01 A3009 RMK AO2 SLP194 T00280011 10044 20022 53001
KJEF - Jefferson City, Missouri
Updated: Thu, Oct-Thu-2019 6:53am
Clear
Clear
 Wind from E
Wind: E 5 mph , 7 km/h
Temperature: 39°F , 4°C
Wind Chill: 35°F , 2°C
Dew Point: 37°F , 3°C
Humidity: 93%
Barometer: 30.11 inHg , 1019.6 hPa
Clouds: Clear
Visibility: 10 miles , 16 km
2019/10/17 11:53 KJEF 171153Z 09004KT 10SM CLR 04/03 A3011 RMK AO2 SLP189 T00390028 10050 20028 53002
KVIH - Vichy/Rolla, Missouri
Updated: Thu, Oct-Thu-2019 6:53am
Clear
Clear
 Wind from SSW
Wind: SSW 8 mph , 13 km/h
Temperature: 34°F , 1°C
Wind Chill: 27°F , -3°C
Dew Point: 30°F , -1°C
Humidity: 87%
Barometer: 30.10 inHg , 1019.3 hPa
Clouds: Clear
Visibility: 10 miles , 16 km
2019/10/17 11:53 KVIH 171153Z AUTO 21007KT 10SM CLR 01/M01 A3010 RMK AO2 SLP197 T00111006 10028 20006 51002
 
KTBN - Fort Leonard Wood, Missouri
Updated: Thu, Oct-Thu-2019 6:56am
Clear
Clear
 Wind from SSW
Wind: SSW 3 mph , 6 km/h
Temperature: 36°F , 2°C
Dew Point: 34°F , 1°C
Humidity: 93%
Barometer: 30.09 inHg , 1019 hPa
Clouds: Clear
Visibility: 10 miles , 16 km
2019/10/17 11:56 KTBN 171156Z AUTO 20003KT 10SM CLR 02/01 A3009 RMK AO2 SLP198 T00190013 10025 20010 50002
KJLN - Joplin, Missouri
Updated: Thu, Oct-Thu-2019 6:53am
Clear
Clear
 Wind from calm
Wind: Calm
Temperature: 43°F , 6°C
Dew Point: 39°F , 4°C
Humidity: 87%
Barometer: 30.09 inHg , 1019 hPa
Clouds: Clear
Visibility: 10 miles , 16 km
2019/10/17 11:53 KJLN 171153Z 00000KT 10SM CLR 06/04 A3009 RMK AO2 SLP189 T00560039 10067 20050 58006
KHFJ - Monett, Missouri
Updated: Thu, Oct-Thu-2019 7:15am
Clear
Clear
 Wind from ESE
Wind: ESE 5 mph , 7 km/h
Temperature: 39°F , 4°C
Wind Chill: 35°F , 2°C
Dew Point: 39°F , 4°C
Humidity: 100%
Barometer: 30.08 inHg , 1018.6 hPa
Clouds: Clear
Visibility: 10 miles , 16 km
2019/10/17 12:15 KHFJ 171215Z AUTO 12004KT 10SM CLR 04/04 A3008 RMK AO2
 
KSGF - Springfield, Missouri
Updated: Thu, Oct-Thu-2019 6:52am
Clear
Clear
 Wind from SSE
Wind: SSE 9 mph , 15 km/h
Temperature: 39°F , 4°C
Wind Chill: 33°F , 1°C
Dew Point: 37°F , 3°C
Humidity: 93%
Barometer: 30.09 inHg , 1019 hPa
Clouds: Clear
Visibility: 10 miles , 16 km
2019/10/17 11:52 KSGF 171152Z 15008KT 10SM CLR 04/03 A3009 RMK AO2 SLP191 T00440028 10044 20033 58002
KBBG - Branson, Missouri
Updated: Thu, Oct-Thu-2019 6:45am
Clear
Clear
 Wind from calm
Wind: Calm
Temperature: 37°F , 3°C
Dew Point: 37°F , 3°C
Humidity: 100%
Barometer: 30.11 inHg , 1019.6 hPa
Clouds: Clear
Visibility: 7 miles , 11 km
2019/10/17 11:45 KBBG 171145Z 00000KT 7SM SKC 03/03 A3011
KUNO - West Plains, Missouri
Updated: Thu, Oct-Thu-2019 6:53am
Clear
Clear
 Wind from calm
Wind: Calm
Temperature: 36°F , 2°C
Dew Point: 34°F , 1°C
Humidity: 93%
Barometer: 30.12 inHg , 1020 hPa
Clouds: Clear
Visibility: 10 miles , 16 km
2019/10/17 11:53 KUNO 171153Z AUTO 00000KT 10SM CLR 02/01 A3012 RMK AO2 SLP202 T00220011 10044 20017 53002
 
KFAM - Farmington, Missouri
Updated: Thu, Oct-Thu-2019 6:56am
Clear
Clear
 Wind from calm
Wind: Calm
Temperature: 36°F , 2°C
Dew Point: 36°F , 2°C
Humidity: 100%
Barometer: 30.11 inHg , 1019.6 hPa
Clouds: Clear
Visibility: 10 miles , 16 km
2019/10/17 11:56 KFAM 171156Z AUTO 00000KT 10SM CLR 02/02 A3011 RMK AO2 SLP212 T00170017 10056 20011 53004 FZRANO
KCGI - Cape Girardeau, Missouri
Updated: Thu, Oct-Thu-2019 6:53am
Clear
Clear
 Wind from calm
Wind: Calm
Temperature: 36°F , 2°C
Dew Point: 34°F , 1°C
Humidity: 93%
Barometer: 30.12 inHg , 1020 hPa
Clouds: Clear
Visibility: 7 miles , 11 km
2019/10/17 11:53 KCGI 171153Z 00000KT 7SM CLR 02/01 A3012 RMK AO2 SLP200 T00220011 10067 20022 53007
KSTL - St. Louis, Missouri
Updated: Thu, Oct-Thu-2019 6:51am
Clear
Clear
 Wind from WSW
Wind: WSW 6 mph , 9 km/h
Temperature: 39°F , 4°C
Wind Chill: 35°F , 2°C
Dew Point: 36°F , 2°C
Humidity: 87%
Barometer: 30.09 inHg , 1019 hPa
Clouds: Clear
Visibility: 9 miles , 14 km
2019/10/17 11:51 KSTL 171151Z 25005KT 9SM CLR 04/02 A3009 RMK AO2 SLP195 T00390022 10061 20039 56001
 
KPOF - Popular Bluff, Missouri
Updated: Thu, Oct-Thu-2019 6:53am
Clear
Clear
 Wind from calm
Wind: Calm
Temperature: 37°F , 3°C
Dew Point: 36°F , 2°C
Humidity: 93%
Barometer: 30.12 inHg , 1020 hPa
Clouds: Clear
Visibility: 10 miles , 16 km
2019/10/17 11:53 KPOF 171153Z AUTO 00000KT 10SM CLR 03/02 A3012 RMK AO2 SLP202 T00330022 10056 20033 50004
KSET - St. Charles, Missouri
Updated: Thu, Oct-Thu-2019 6:54am

 
Barometer: 30.09 inHg , 1019 hPa
2019/10/17 11:54 KSET 171154Z AUTO A3009 RMK AO2 SLPNO 55000 PWINO FZRANO $
KGLD - Goodland, Kansas
Updated: Thu, Oct-Thu-2019 6:53am
Clear
Clear
 Wind from WSW
Wind: WSW 9 mph , 15 km/h
Temperature: 50°F , 10°C
Wind Chill: 46°F , 8°C
Dew Point: 25°F , -4°C
Humidity: 37%
Barometer: 29.88 inHg , 1011.9 hPa
Clouds: Clear
Visibility: 10 miles , 16 km
2019/10/17 11:53 KGLD 171153Z AUTO 24008KT 10SM CLR 10/M04 A2988 RMK AO2 SLP093 T01001039 10144 20089 56009
 
KHLC - Hill City, Kansas
Updated: Thu, Oct-Thu-2019 6:53am
Clear
Clear
 Wind from WSW
Wind: WSW 3 mph , 6 km/h
Temperature: 34°F , 1°C
Dew Point: 30°F , -1°C
Humidity: 87%
Barometer: 29.89 inHg , 1012.2 hPa
Clouds: Clear
Visibility: 10 miles , 16 km
2019/10/17 11:53 KHLC 171153Z AUTO 24003KT 10SM CLR 01/M01 A2989 RMK AO2 SLP121 7//// T00111011 10106 20011 56003
KHYS - Hays Muni, Kansas
Updated: Thu, Oct-Thu-2019 6:56am
Clear
Clear
 Wind from calm
Wind: Calm
Temperature: 37°F , 3°C
Dew Point: 34°F , 1°C
Humidity: 87%
Barometer: 29.91 inHg , 1012.9 hPa
Clouds: Clear
Visibility: 10 miles , 16 km
2019/10/17 11:56 KHYS 171156Z AUTO 00000KT 10SM CLR 03/01 A2991 RMK AO2 SLP132 T00280011 10072 20022 56003
KRSL - Russell, Kansas
Updated: Thu, Oct-Thu-2019 6:53am
Clear
Clear
 Wind from S
Wind: S 12 mph , 19 km/h
Temperature: 43°F , 6°C
Wind Chill: 37°F , 3°C
Dew Point: 36°F , 2°C
Humidity: 76%
Barometer: 29.89 inHg , 1012.2 hPa
Clouds: Clear
Visibility: 10 miles , 16 km
2019/10/17 11:53 KRSL 171153Z AUTO 19010KT 10SM CLR 06/02 A2989 RMK AO2 SLP125 T00610017 10094 20061 57001
 
KGBD - Great Bend, Kansas
Updated: Thu, Oct-Thu-2019 6:56am
Clear
Clear
 Wind from S
Wind: S 10 mph , 17 km/h
Temperature: 43°F , 6°C
Wind Chill: 37°F , 3°C
Dew Point: 36°F , 2°C
Humidity: 76%
Barometer: 29.92 inHg , 1013.2 hPa
Clouds: Clear
Visibility: 10 miles , 16 km
2019/10/17 11:56 KGBD 171156Z AUTO 17009KT 10SM CLR 06/02 A2992 RMK AO2 SLP134 T00560017 10083 20050 57005 $
KDDC - Dodge City, Kansas
Updated: Thu, Oct-Thu-2019 6:52am
Clear
Clear
 Wind from SSW
Wind: SSW 13 mph , 20 km/h
Temperature: 48°F , 9°C
Wind Chill: 43°F , 6°C
Dew Point: 34°F , 1°C
Humidity: 58%
Barometer: 29.92 inHg , 1013.2 hPa
Clouds: Clear
Visibility: 10 miles , 16 km
2019/10/17 11:52 KDDC 171152Z AUTO 20011KT 10SM CLR 09/01 A2992 RMK AO2 SLP121 T00890011 10122 20078 56006
KPTT - Pratt Indust, Kansas
Updated: Thu, Oct-Thu-2019 7:15am
Clear
Clear
 Wind from S
Wind: S 9 mph , 15 km/h
Temperature: 45°F , 7°C
Wind Chill: 40°F , 4°C
Dew Point: 34°F , 1°C
Humidity: 66%
Barometer: 29.95 inHg , 1014.2 hPa
Clouds: Clear
Visibility: 10 miles , 16 km
2019/10/17 12:15 KPTT 171215Z AUTO 19008KT 10SM CLR 07/01 A2995 RMK AO2 T00650011
 
KSLN - Salina, Kansas
Updated: Thu, Oct-Thu-2019 6:53am
Clear
Clear
 Wind from S
Wind: S 14 mph , 22 km/h, Gust: 25 mph , 41 km/h
Temperature: 48°F , 9°C
Wind Chill: 42°F , 6°C
Dew Point: 36°F , 2°C
Humidity: 62%
Barometer: 29.93 inHg , 1013.5 hPa
Clouds: Clear
Visibility: 10 miles , 16 km
2019/10/17 11:53 KSLN 171153Z 18012G22KT 10SM CLR 09/02 A2993 RMK AO2 SLP136 T00940022 10100 20050 58007
KHUT - Hutchinson, Kansas
Updated: Thu, Oct-Thu-2019 6:52am
Clear
Clear
 Wind from S
Wind: S 8 mph , 13 km/h
Temperature: 46°F , 8°C
Wind Chill: 42°F , 6°C
Dew Point: 36°F , 2°C
Humidity: 66%
Barometer: 29.95 inHg , 1014.2 hPa
Clouds: Clear
Visibility: 10 miles , 16 km
2019/10/17 11:52 KHUT 171152Z 17007KT 10SM CLR 08/02 A2995 RMK AO2 SLP136 T00780022 10089 20050 56010
KGCK - Garden City, Kansas
Updated: Thu, Oct-Thu-2019 6:54am
Clear
Clear
 Wind from S
Wind: S 6 mph , 9 km/h
Temperature: 37°F , 3°C
Wind Chill: 32°F , 0°C
Dew Point: 30°F , -1°C
Humidity: 75%
Barometer: 29.90 inHg , 1012.5 hPa
Clouds: Clear
Visibility: 10 miles , 16 km
2019/10/17 11:54 KGCK 171154Z AUTO 19005KT 10SM CLR 03/M01 A2990 RMK AO2 SLP117 T00281006 10094 20028 56007
 
KP28 - Medicine Lodge, Kansas
Updated: Thu, Oct-Thu-2019 6:56am

 Wind from ESE
Wind: ESE 5 mph , 7 km/h
Temperature: 45°F , 7°C
Wind Chill: 42°F , 6°C
Dew Point: 36°F , 2°C
Humidity: 71%
Barometer: 29.97 inHg , 1014.9 hPa
2019/10/17 11:56 KP28 171156Z AUTO 12004KT 07/02 A2997 RMK AO1 SLP147 T00670022 10094 20067 56013
KICT - Wichita, Kansas
Updated: Thu, Oct-Thu-2019 6:53am
Clear
Clear
 Wind from S
Wind: S 10 mph , 17 km/h
Temperature: 45°F , 7°C
Wind Chill: 40°F , 4°C
Dew Point: 37°F , 3°C
Humidity: 76%
Barometer: 29.98 inHg , 1015.2 hPa
Clouds: Clear
Visibility: 10 miles , 16 km
2019/10/17 11:53 KICT 171153Z 17009KT 10SM CLR 07/03 A2998 RMK AO2 SLP153 T00670028 10078 20056 56012 $
KRSL - Russell, Kansas
Updated: Thu, Oct-Thu-2019 6:53am
Clear
Clear
 Wind from S
Wind: S 12 mph , 19 km/h
Temperature: 43°F , 6°C
Wind Chill: 37°F , 3°C
Dew Point: 36°F , 2°C
Humidity: 76%
Barometer: 29.89 inHg , 1012.2 hPa
Clouds: Clear
Visibility: 10 miles , 16 km
2019/10/17 11:53 KRSL 171153Z AUTO 19010KT 10SM CLR 06/02 A2989 RMK AO2 SLP125 T00610017 10094 20061 57001
 
KMHK - Manhattan, Kansas
Updated: Thu, Oct-Thu-2019 6:52am
Clear
Clear
 Wind from calm
Wind: Calm
Temperature: 39°F , 4°C
Dew Point: 37°F , 3°C
Humidity: 93%
Barometer: 29.97 inHg , 1014.9 hPa
Clouds: Clear
Visibility: 10 miles , 16 km
2019/10/17 11:52 KMHK 171152Z 00000KT 10SM CLR 04/03 A2997 RMK AO2 SLP153 T00390028 10067 20022 56008
KEMP - Emporia, Kansas
Updated: Thu, Oct-Thu-2019 6:53am
Clear
Clear
 Wind from SSE
Wind: SSE 12 mph , 19 km/h
Temperature: 41°F , 5°C
Wind Chill: 34°F , 1°C
Dew Point: 39°F , 4°C
Humidity: 93%
Barometer: 30.00 inHg , 1015.9 hPa
Clouds: Clear
Visibility: 10 miles , 16 km
2019/10/17 11:53 KEMP 171153Z AUTO 16010KT 10SM CLR 05/04 A3000 RMK AO2 SLP164 T00500044 10067 20050 58008
KTOP - Topeka, Kansas
Updated: Thu, Oct-Thu-2019 6:53am
Clear
Clear
 Wind from calm
Wind: Calm
Temperature: 43°F , 6°C
Dew Point: 36°F , 2°C
Humidity: 76%
Barometer: 30.02 inHg , 1016.6 hPa
Clouds: Clear
Visibility: 10 miles , 16 km
2019/10/17 11:53 KTOP 171153Z 00000KT 10SM CLR 06/02 A3002 RMK AO2 SLP167 T00560022 10061 20039 56006
 
KCNU - Chanute, Kansas
Updated: Thu, Oct-Thu-2019 6:52am
Clear
Clear
 Wind from SSE
Wind: SSE 8 mph , 13 km/h
Temperature: 43°F , 6°C
Wind Chill: 38°F , 3°C
Dew Point: 39°F , 4°C
Humidity: 87%
Barometer: 30.06 inHg , 1017.9 hPa
Clouds: Clear
Visibility: 10 miles , 16 km
2019/10/17 11:52 KCNU 171152Z AUTO 15007KT 10SM CLR 06/04 A3006 RMK AO2 SLP178 T00610044 10072 20056 58006
KLWC - Lawrence, Kansas
Updated: Thu, Oct-Thu-2019 4:53am
NOT Current
Clear
Clear
 Wind from E
Wind: E 6 mph , 9 km/h
Temperature: 36°F , 2°C
Wind Chill: 31°F , -1°C
Dew Point: 34°F , 1°C
Humidity: 93%
Barometer: 30.04 inHg , 1017.3 hPa
Clouds: Clear
Visibility: 10 miles , 16 km
2019/10/17 09:53 KLWC 170953Z 09005KT 10SM CLR 02/01 A3004
KPPF - Parsons, Kansas
Updated: Thu, Oct-Thu-2019 6:52am
Clear
Clear
 Wind from SSE
Wind: SSE 3 mph , 6 km/h
Temperature: 45°F , 7°C
Dew Point: 43°F , 6°C
Humidity: 93%
Barometer: 30.07 inHg , 1018.3 hPa
Clouds: Clear
Visibility: 10 miles , 16 km
2019/10/17 11:52 KPPF 171152Z AUTO 16003KT 10SM CLR 07/06 A3007 RMK AO2 SLP183 T00670056 10072 20033 57008
 
KIDP - Independence, Kansas
Updated: Thu, Oct-Thu-2019 7:15am
Mist, Clear
Mist, Clear
 Wind from SSE
Wind: SSE 5 mph , 7 km/h
Temperature: 41°F , 5°C
Wind Chill: 38°F , 3°C
Dew Point: 41°F , 5°C
Humidity: 100%
Barometer: 30.05 inHg , 1017.6 hPa
Summary: Mist
Clouds: Clear
Visibility: 7 miles , 11 km
2019/10/17 12:15 KIDP 171215Z AUTO 15004KT 7SM BR CLR 05/05 A3005 RMK AO2 T00530047
KOJC - Olathe, Kansas
Updated: Thu, Oct-Thu-2019 6:53am
Clear
Clear
 Wind from S
Wind: S 6 mph , 9 km/h
Temperature: 39°F , 4°C
Wind Chill: 35°F , 2°C
Dew Point: 39°F , 4°C
Humidity: 100%
Barometer: 30.05 inHg , 1017.6 hPa
Clouds: Clear
Visibility: 10 miles , 16 km
2019/10/17 11:53 KOJC 171153Z 17005KT 10SM CLR 04/04 A3005 RMK AO2 SLP177 T00390039 10056 20033 58002
KCFV - Coffeyville, Kansas
Updated: Thu, Oct-Thu-2019 6:52am
Clear
Clear
 Wind from SSE
Wind: SSE 6 mph , 9 km/h
Temperature: 41°F , 5°C
Wind Chill: 37°F , 3°C
Dew Point: 39°F , 4°C
Humidity: 93%
Barometer: 30.05 inHg , 1017.6 hPa
Clouds: Clear
Visibility: 10 miles , 16 km
2019/10/17 11:52 KCFV 171152Z AUTO 16005KT 10SM CLR 05/04 A3005 RMK AO2 SLP178 T00500039 10056 20033 58012
 
KPTS - Pittsburg, Kansas
Updated: Thu, Oct-Thu-2019 7:35am
Clear
Clear
 Wind from ESE
Wind: ESE 3 mph , 6 km/h
Temperature: 39°F , 4°C
Dew Point: 39°F , 4°C
Humidity: 100%
Barometer: 30.07 inHg , 1018.3 hPa
Clouds: Clear
Visibility: 10 miles , 16 km
2019/10/17 12:35 KPTS 171235Z AUTO 12003KT 10SM CLR 04/04 A3007 RMK AO2 T00420040
KLGA - New York City, New York
Updated: Thu, Oct-Thu-2019 6:51am
Mostly cloudy
Mostly cloudy
 Wind from W
Wind: W 25 mph , 41 km/h, Gust: 37 mph , 59 km/h
Temperature: 54°F , 12°C
Dew Point: 37°F , 3°C
Humidity: 54%
Barometer: 29.29 inHg , 991.9 hPa
Clouds: Mostly cloudy
Visibility: 10 miles , 16 km
Cloud details: Mostly cloudy 4600 ft
2019/10/17 11:51 KLGA 171151Z 26022G32KT 10SM BKN046 12/03 A2929 RMK AO2 PK WND 27033/1134 RAE1059 SLP917 P0000 60000 70171 T01170033 10128 20111 53009
KCLT - Charlotte, North Carolina
Updated: Thu, Oct-Thu-2019 6:52am
Few Clouds
Few Clouds
 Wind from W
Wind: W 3 mph , 6 km/h
Temperature: 45°F , 7°C
Dew Point: 36°F , 2°C
Humidity: 71%
Barometer: 29.91 inHg , 1012.9 hPa
Clouds: Few Clouds
Visibility: 10 miles , 16 km
Cloud details: Few Clouds 25000 ft
2019/10/17 11:52 KCLT 171152Z 26003KT 10SM FEW250 07/02 A2991 RMK AO2 SLP125 70033 T00670022 10106 20056 53014
 
KATL - Atlanta, Georgia
Updated: Thu, Oct-Thu-2019 6:52am
Partly cloudy
Partly cloudy
 Wind from NW
Wind: NW 13 mph , 20 km/h
Temperature: 46°F , 8°C
Wind Chill: 40°F , 4°C
Dew Point: 37°F , 3°C
Humidity: 71%
Barometer: 29.97 inHg , 1014.9 hPa
Clouds: Partly cloudy
Visibility: 10 miles , 16 km
Cloud details: Few Clouds 20000 ft
Partly cloudy 25000 ft
2019/10/17 11:52 KATL 171152Z 32011KT 10SM FEW200 SCT250 08/03 A2997 RMK AO2 SLP150 70001 T00780033 10111 20078 51011
KORL - Orlando, Florida
Updated: Thu, Oct-Thu-2019 6:53am
Clear
Clear
 Wind from NNW
Wind: NNW 7 mph , 11 km/h
Temperature: 72°F , 22°C
Dew Point: 68°F , 20°C
Humidity: 88%
Barometer: 29.92 inHg , 1013.2 hPa
Clouds: Clear
Visibility: 10 miles , 16 km
2019/10/17 11:53 KORL 171153Z 34006KT 10SM CLR 22/20 A2992 RMK AO2 SLP136 T02220200 10244 20222 53013
KMSP - Minneapolis, Minnesota
Updated: Thu, Oct-Thu-2019 6:53am
Clear
Clear
 Wind from calm
Wind: Calm
Temperature: 37°F , 3°C
Dew Point: 34°F , 1°C
Humidity: 87%
Barometer: 30.03 inHg , 1016.9 hPa
Clouds: Clear
Visibility: 10 miles , 16 km
2019/10/17 11:53 KMSP 171153Z 00000KT 10SM CLR 03/01 A3003 RMK AO2 SLP175 T00280011 10056 20022 52002
 
KORD - Chicago, Illinois
Updated: Thu, Oct-Thu-2019 6:51am
Mostly cloudy
Mostly cloudy
 Wind from W
Wind: W 5 mph , 7 km/h
Temperature: 43°F , 6°C
Wind Chill: 40°F , 4°C
Dew Point: 37°F , 3°C
Humidity: 81%
Barometer: 30.00 inHg , 1015.9 hPa
Clouds: Mostly cloudy
Visibility: 10 miles , 16 km
Cloud details: Mostly cloudy 13000 ft
Mostly cloudy 25000 ft
2019/10/17 11:51 KORD 171151Z 26004KT 10SM BKN130 BKN250 06/03 A3000 RMK AO2 SLP164 T00560028 10061 20050 50003
KDFW - Dallas/Ft Worth, Texas
Updated: Thu, Oct-Thu-2019 6:53am
Mostly cloudy
Mostly cloudy
 Wind from calm
Wind: Calm
Temperature: 48°F , 9°C
Dew Point: 43°F , 6°C
Humidity: 82%
Barometer: 30.07 inHg , 1018.3 hPa
Clouds: Mostly cloudy
Visibility: 10 miles , 16 km
Cloud details: Partly cloudy 25000 ft
Mostly cloudy 30000 ft
2019/10/17 11:53 KDFW 171153Z 00000KT 10SM SCT250 BKN300 09/06 A3007 RMK AO2 SLP178 T00940056 10128 20083 55004
KHOU - Houston, Texas
Updated: Thu, Oct-Thu-2019 6:53am
Overcast
Overcast
 Wind from NE
Wind: NE 12 mph , 19 km/h
Temperature: 59°F , 15°C
Dew Point: 48°F , 9°C
Humidity: 68%
Barometer: 30.02 inHg , 1016.6 hPa
Clouds: Overcast
Visibility: 10 miles , 16 km
Cloud details: Few Clouds 12000 ft
Overcast 25000 ft
2019/10/17 11:53 KHOU 171153Z 04010KT 10SM FEW120 OVC250 15/09 A3002 RMK AO2 SLP171 70001 T01500094 10172 20150 51006
 
KDEN - Denver, Colorado
Updated: Thu, Oct-Thu-2019 6:53am
Mostly cloudy
Mostly cloudy
 Wind from SSW
Wind: SSW 15 mph , 24 km/h
Temperature: 52°F , 11°C
Dew Point: 16°F , -9°C
Humidity: 24%
Barometer: 29.93 inHg , 1013.5 hPa
Clouds: Mostly cloudy
Visibility: 10 miles , 16 km
Cloud details: Few Clouds 14000 ft
Mostly cloudy 22000 ft
2019/10/17 11:53 KDEN 171153Z 21013KT 10SM FEW140 BKN220 11/M09 A2993 RMK AO2 SLP072 T01111094 10139 20106 58012
KSFO - San Francisco, California
Updated: Thu, Oct-Thu-2019 7:19am
Partly cloudy
Partly cloudy
 Wind from WNW
Wind: WNW 10 mph , 17 km/h
Temperature: 55°F , 13°C
Dew Point: 54°F , 12°C
Humidity: 94%
Barometer: 29.91 inHg , 1012.9 hPa
Clouds: Partly cloudy
Visibility: 10 miles , 16 km
Cloud details: Few Clouds 800 ft
Partly cloudy 1100 ft
2019/10/17 12:19 KSFO 171219Z 29009KT 10SM FEW008 SCT011 13/12 A2991 RMK AO2 T01330117
KLAX - Los Angeles, California
Updated: Thu, Oct-Thu-2019 6:53am
Mostly cloudy
Mostly cloudy
 Wind from NW
Wind: NW 3 mph , 6 km/h
Temperature: 64°F , 18°C
Dew Point: 57°F , 14°C
Humidity: 78%
Barometer: 29.80 inHg , 1009.1 hPa
Clouds: Mostly cloudy
Visibility: 9 miles , 14 km
Cloud details: Few Clouds 900 ft
Mostly cloudy 14000 ft
Mostly cloudy 20000 ft
2019/10/17 11:53 KLAX 171153Z 32003KT 9SM FEW009 BKN140 BKN200 18/14 A2980 RMK AO2 SLP087 T01830139 10206 20178 55005